sensor_id;sensor_type;location;lat;lon;timestamp;P1;durP1;ratioP1;P2;durP2;ratioP2
65665;SDS011;52365;47.464;18.976;2024-03-07T00:00:18;15.13;;;8.90;;
65665;SDS011;52365;47.464;18.976;2024-03-07T00:00:39;14.77;;;9.05;;
65665;SDS011;52365;47.464;18.976;2024-03-07T00:01:00;14.60;;;8.98;;
65665;SDS011;52365;47.464;18.976;2024-03-07T00:01:21;14.18;;;9.00;;
65665;SDS011;52365;47.464;18.976;2024-03-07T00:01:42;12.75;;;8.50;;
65665;SDS011;52365;47.464;18.976;2024-03-07T00:02:03;12.65;;;8.02;;
65665;SDS011;52365;47.464;18.976;2024-03-07T00:02:24;13.27;;;8.20;;
65665;SDS011;52365;47.464;18.976;2024-03-07T00:02:45;13.27;;;8.32;;
65665;SDS011;52365;47.464;18.976;2024-03-07T00:03:08;14.98;;;8.57;;
65665;SDS011;52365;47.464;18.976;2024-03-07T00:03:29;15.20;;;8.57;;
65665;SDS011;52365;47.464;18.976;2024-03-07T00:03:50;14.10;;;8.40;;
65665;SDS011;52365;47.464;18.976;2024-03-07T00:04:11;14.23;;;8.50;;
65665;SDS011;52365;47.464;18.976;2024-03-07T00:04:32;13.82;;;8.80;;
65665;SDS011;52365;47.464;18.976;2024-03-07T00:04:53;13.62;;;8.65;;
65665;SDS011;52365;47.464;18.976;2024-03-07T00:05:14;13.10;;;8.32;;
65665;SDS011;52365;47.464;18.976;2024-03-07T00:05:36;13.33;;;8.43;;
65665;SDS011;52365;47.464;18.976;2024-03-07T00:05:57;13.73;;;8.43;;
65665;SDS011;52365;47.464;18.976;2024-03-07T00:06:18;12.48;;;8.40;;
65665;SDS011;52365;47.464;18.976;2024-03-07T00:06:41;12.13;;;8.00;;
65665;SDS011;52365;47.464;18.976;2024-03-07T00:07:02;12.93;;;8.15;;
65665;SDS011;52365;47.464;18.976;2024-03-07T00:07:24;13.30;;;8.10;;
65665;SDS011;52365;47.464;18.976;2024-03-07T00:07:45;14.38;;;8.05;;
65665;SDS011;52365;47.464;18.976;2024-03-07T00:08:07;13.85;;;8.27;;
65665;SDS011;52365;47.464;18.976;2024-03-07T00:08:28;13.57;;;8.73;;
65665;SDS011;52365;47.464;18.976;2024-03-07T00:08:51;13.10;;;8.45;;
65665;SDS011;52365;47.464;18.976;2024-03-07T00:09:12;12.32;;;8.23;;
65665;SDS011;52365;47.464;18.976;2024-03-07T00:09:33;12.95;;;8.48;;
65665;SDS011;52365;47.464;18.976;2024-03-07T00:09:55;12.18;;;7.75;;
65665;SDS011;52365;47.464;18.976;2024-03-07T00:10:16;12.30;;;8.18;;
65665;SDS011;52365;47.464;18.976;2024-03-07T00:10:32;14.07;;;8.68;;
65665;SDS011;52365;47.464;18.976;2024-03-07T00:10:53;14.87;;;8.77;;
65665;SDS011;52365;47.464;18.976;2024-03-07T00:11:14;13.82;;;8.18;;
65665;SDS011;52365;47.464;18.976;2024-03-07T00:11:35;13.23;;;8.07;;
65665;SDS011;52365;47.464;18.976;2024-03-07T00:11:56;12.52;;;7.95;;
65665;SDS011;52365;47.464;18.976;2024-03-07T00:12:17;12.15;;;8.15;;
65665;SDS011;52365;47.464;18.976;2024-03-07T00:12:38;13.65;;;8.20;;
65665;SDS011;52365;47.464;18.976;2024-03-07T00:13:01;14.32;;;8.30;;
65665;SDS011;52365;47.464;18.976;2024-03-07T00:13:23;13.60;;;8.10;;
65665;SDS011;52365;47.464;18.976;2024-03-07T00:13:44;11.85;;;7.90;;
65665;SDS011;52365;47.464;18.976;2024-03-07T00:14:05;13.57;;;8.60;;
65665;SDS011;52365;47.464;18.976;2024-03-07T00:14:26;12.73;;;7.90;;
65665;SDS011;52365;47.464;18.976;2024-03-07T00:14:47;14.23;;;8.20;;
65665;SDS011;52365;47.464;18.976;2024-03-07T00:15:12;14.27;;;8.48;;
65665;SDS011;52365;47.464;18.976;2024-03-07T00:15:28;17.60;;;10.00;;
65665;SDS011;52365;47.464;18.976;2024-03-07T00:15:50;15.40;;;10.60;;
65665;SDS011;52365;47.464;18.976;2024-03-07T00:16:11;15.30;;;10.00;;
65665;SDS011;52365;47.464;18.976;2024-03-07T00:16:33;17.98;;;11.63;;
65665;SDS011;52365;47.464;18.976;2024-03-07T00:16:54;17.95;;;12.70;;
65665;SDS011;52365;47.464;18.976;2024-03-07T00:17:16;17.50;;;11.75;;
65665;SDS011;52365;47.464;18.976;2024-03-07T00:17:38;16.35;;;10.55;;
65665;SDS011;52365;47.464;18.976;2024-03-07T00:17:59;15.77;;;10.30;;
65665;SDS011;52365;47.464;18.976;2024-03-07T00:18:21;13.82;;;8.63;;
65665;SDS011;52365;47.464;18.976;2024-03-07T00:18:42;14.02;;;8.45;;
65665;SDS011;52365;47.464;18.976;2024-03-07T00:19:03;13.60;;;8.00;;
65665;SDS011;52365;47.464;18.976;2024-03-07T00:19:24;12.43;;;7.68;;
65665;SDS011;52365;47.464;18.976;2024-03-07T00:19:47;12.02;;;7.35;;
65665;SDS011;52365;47.464;18.976;2024-03-07T00:20:08;12.18;;;8.00;;
65665;SDS011;52365;47.464;18.976;2024-03-07T00:20:34;12.95;;;8.25;;
65665;SDS011;52365;47.464;18.976;2024-03-07T00:20:55;13.50;;;8.65;;
65665;SDS011;52365;47.464;18.976;2024-03-07T00:21:16;14.23;;;8.57;;
65665;SDS011;52365;47.464;18.976;2024-03-07T00:21:37;12.00;;;8.30;;
65665;SDS011;52365;47.464;18.976;2024-03-07T00:21:58;12.98;;;8.60;;
65665;SDS011;52365;47.464;18.976;2024-03-07T00:22:19;13.52;;;8.30;;
65665;SDS011;52365;47.464;18.976;2024-03-07T00:22:43;14.55;;;8.85;;
65665;SDS011;52365;47.464;18.976;2024-03-07T00:23:04;12.82;;;8.38;;
65665;SDS011;52365;47.464;18.976;2024-03-07T00:23:26;12.00;;;7.93;;
65665;SDS011;52365;47.464;18.976;2024-03-07T00:23:47;13.68;;;8.43;;
65665;SDS011;52365;47.464;18.976;2024-03-07T00:24:09;13.75;;;8.70;;
65665;SDS011;52365;47.464;18.976;2024-03-07T00:24:31;12.70;;;8.68;;
65665;SDS011;52365;47.464;18.976;2024-03-07T00:24:52;14.07;;;8.63;;
65665;SDS011;52365;47.464;18.976;2024-03-07T00:25:13;13.07;;;8.38;;
65665;SDS011;52365;47.464;18.976;2024-03-07T00:25:35;12.80;;;8.68;;
65665;SDS011;52365;47.464;18.976;2024-03-07T00:25:56;13.68;;;8.85;;
65665;SDS011;52365;47.464;18.976;2024-03-07T00:26:17;14.40;;;9.07;;
65665;SDS011;52365;47.464;18.976;2024-03-07T00:26:38;13.20;;;8.75;;
65665;SDS011;52365;47.464;18.976;2024-03-07T00:26:59;12.63;;;8.25;;
65665;SDS011;52365;47.464;18.976;2024-03-07T00:27:20;12.98;;;8.48;;
65665;SDS011;52365;47.464;18.976;2024-03-07T00:27:41;13.85;;;8.90;;
65665;SDS011;52365;47.464;18.976;2024-03-07T00:28:05;12.57;;;8.50;;
65665;SDS011;52365;47.464;18.976;2024-03-07T00:28:27;11.35;;;8.07;;
65665;SDS011;52365;47.464;18.976;2024-03-07T00:28:52;13.23;;;8.13;;
65665;SDS011;52365;47.464;18.976;2024-03-07T00:29:13;12.77;;;8.32;;
65665;SDS011;52365;47.464;18.976;2024-03-07T00:29:35;11.90;;;7.90;;
65665;SDS011;52365;47.464;18.976;2024-03-07T00:29:58;13.23;;;8.60;;
65665;SDS011;52365;47.464;18.976;2024-03-07T00:30:19;12.90;;;8.43;;
65665;SDS011;52365;47.464;18.976;2024-03-07T00:30:40;11.45;;;7.70;;
65665;SDS011;52365;47.464;18.976;2024-03-07T00:31:03;12.57;;;8.07;;
65665;SDS011;52365;47.464;18.976;2024-03-07T00:31:24;11.85;;;8.20;;
65665;SDS011;52365;47.464;18.976;2024-03-07T00:31:45;12.25;;;7.85;;
65665;SDS011;52365;47.464;18.976;2024-03-07T00:32:09;12.82;;;8.18;;
65665;SDS011;52365;47.464;18.976;2024-03-07T00:32:30;14.15;;;8.93;;
65665;SDS011;52365;47.464;18.976;2024-03-07T00:32:56;12.68;;;8.25;;
65665;SDS011;52365;47.464;18.976;2024-03-07T00:33:18;13.18;;;8.60;;
65665;SDS011;52365;47.464;18.976;2024-03-07T00:33:42;12.85;;;8.32;;
65665;SDS011;52365;47.464;18.976;2024-03-07T00:34:03;12.90;;;8.05;;
65665;SDS011;52365;47.464;18.976;2024-03-07T00:34:24;12.70;;;8.00;;
65665;SDS011;52365;47.464;18.976;2024-03-07T00:34:45;12.68;;;8.20;;
65665;SDS011;52365;47.464;18.976;2024-03-07T00:35:07;12.15;;;8.00;;
65665;SDS011;52365;47.464;18.976;2024-03-07T00:35:29;12.63;;;8.27;;
65665;SDS011;52365;47.464;18.976;2024-03-07T00:35:50;11.75;;;7.85;;
65665;SDS011;52365;47.464;18.976;2024-03-07T00:36:11;12.80;;;7.70;;
65665;SDS011;52365;47.464;18.976;2024-03-07T00:36:32;13.32;;;8.25;;
65665;SDS011;52365;47.464;18.976;2024-03-07T00:36:54;13.35;;;8.45;;
65665;SDS011;52365;47.464;18.976;2024-03-07T00:37:16;12.13;;;7.72;;
65665;SDS011;52365;47.464;18.976;2024-03-07T00:37:38;12.65;;;8.32;;
65665;SDS011;52365;47.464;18.976;2024-03-07T00:37:59;12.63;;;8.25;;
65665;SDS011;52365;47.464;18.976;2024-03-07T00:38:20;11.95;;;7.72;;
65665;SDS011;52365;47.464;18.976;2024-03-07T00:38:41;14.05;;;8.13;;
65665;SDS011;52365;47.464;18.976;2024-03-07T00:39:02;12.73;;;7.95;;
65665;SDS011;52365;47.464;18.976;2024-03-07T00:39:23;11.70;;;7.87;;
65665;SDS011;52365;47.464;18.976;2024-03-07T00:39:44;12.98;;;8.13;;
65665;SDS011;52365;47.464;18.976;2024-03-07T00:40:05;12.30;;;8.10;;
65665;SDS011;52365;47.464;18.976;2024-03-07T00:40:27;12.05;;;7.85;;
65665;SDS011;52365;47.464;18.976;2024-03-07T00:40:48;12.88;;;7.95;;
65665;SDS011;52365;47.464;18.976;2024-03-07T00:41:09;12.77;;;8.30;;
65665;SDS011;52365;47.464;18.976;2024-03-07T00:41:30;12.20;;;8.10;;
65665;SDS011;52365;47.464;18.976;2024-03-07T00:41:51;11.82;;;8.15;;
65665;SDS011;52365;47.464;18.976;2024-03-07T00:42:12;11.55;;;8.20;;
65665;SDS011;52365;47.464;18.976;2024-03-07T00:42:33;12.32;;;8.00;;
65665;SDS011;52365;47.464;18.976;2024-03-07T00:42:54;11.52;;;7.55;;
65665;SDS011;52365;47.464;18.976;2024-03-07T00:43:15;12.65;;;7.80;;
65665;SDS011;52365;47.464;18.976;2024-03-07T00:43:36;13.80;;;8.25;;
65665;SDS011;52365;47.464;18.976;2024-03-07T00:43:57;12.93;;;8.00;;
65665;SDS011;52365;47.464;18.976;2024-03-07T00:44:18;11.85;;;7.87;;
65665;SDS011;52365;47.464;18.976;2024-03-07T00:44:39;12.80;;;8.07;;
65665;SDS011;52365;47.464;18.976;2024-03-07T00:44:59;12.43;;;8.23;;
65665;SDS011;52365;47.464;18.976;2024-03-07T00:45:20;14.80;;;8.57;;
65665;SDS011;52365;47.464;18.976;2024-03-07T00:45:41;12.77;;;8.15;;
65665;SDS011;52365;47.464;18.976;2024-03-07T00:46:02;11.93;;;8.07;;
65665;SDS011;52365;47.464;18.976;2024-03-07T00:46:23;13.02;;;8.40;;
65665;SDS011;52365;47.464;18.976;2024-03-07T00:46:44;11.80;;;8.30;;
65665;SDS011;52365;47.464;18.976;2024-03-07T00:47:06;12.00;;;8.40;;
65665;SDS011;52365;47.464;18.976;2024-03-07T00:47:27;12.13;;;8.00;;
65665;SDS011;52365;47.464;18.976;2024-03-07T00:47:48;78.10;;;48.75;;
65665;SDS011;52365;47.464;18.976;2024-03-07T00:48:04;111.32;;;69.90;;
65665;SDS011;52365;47.464;18.976;2024-03-07T00:48:25;44.60;;;28.05;;
65665;SDS011;52365;47.464;18.976;2024-03-07T00:48:46;19.73;;;12.48;;
65665;SDS011;52365;47.464;18.976;2024-03-07T00:49:07;14.85;;;9.98;;
65665;SDS011;52365;47.464;18.976;2024-03-07T00:49:29;22.92;;;14.73;;
65665;SDS011;52365;47.464;18.976;2024-03-07T00:49:50;22.17;;;14.05;;
65665;SDS011;52365;47.464;18.976;2024-03-07T00:50:11;18.30;;;11.55;;
65665;SDS011;52365;47.464;18.976;2024-03-07T00:50:32;15.07;;;10.20;;
65665;SDS011;52365;47.464;18.976;2024-03-07T00:50:53;14.18;;;9.82;;
65665;SDS011;52365;47.464;18.976;2024-03-07T00:51:15;14.63;;;9.52;;
65665;SDS011;52365;47.464;18.976;2024-03-07T00:51:36;16.08;;;10.38;;
65665;SDS011;52365;47.464;18.976;2024-03-07T00:52:00;15.73;;;10.65;;
65665;SDS011;52365;47.464;18.976;2024-03-07T00:52:21;14.65;;;10.48;;
65665;SDS011;52365;47.464;18.976;2024-03-07T00:52:42;16.02;;;11.10;;
65665;SDS011;52365;47.464;18.976;2024-03-07T00:53:03;17.45;;;11.65;;
65665;SDS011;52365;47.464;18.976;2024-03-07T00:53:24;15.85;;;11.20;;
65665;SDS011;52365;47.464;18.976;2024-03-07T00:53:45;16.95;;;10.77;;
65665;SDS011;52365;47.464;18.976;2024-03-07T00:54:05;16.75;;;10.73;;
65665;SDS011;52365;47.464;18.976;2024-03-07T00:54:27;16.05;;;10.73;;
65665;SDS011;52365;47.464;18.976;2024-03-07T00:54:48;15.55;;;10.00;;
65665;SDS011;52365;47.464;18.976;2024-03-07T00:55:10;14.85;;;9.55;;
65665;SDS011;52365;47.464;18.976;2024-03-07T00:55:31;14.13;;;9.60;;
65665;SDS011;52365;47.464;18.976;2024-03-07T00:55:52;14.70;;;9.77;;
65665;SDS011;52365;47.464;18.976;2024-03-07T00:56:14;14.23;;;8.48;;
65665;SDS011;52365;47.464;18.976;2024-03-07T00:56:35;12.68;;;8.50;;
65665;SDS011;52365;47.464;18.976;2024-03-07T00:56:56;11.73;;;8.02;;
65665;SDS011;52365;47.464;18.976;2024-03-07T00:57:17;11.48;;;8.18;;
65665;SDS011;52365;47.464;18.976;2024-03-07T00:57:38;13.57;;;8.35;;
65665;SDS011;52365;47.464;18.976;2024-03-07T00:57:59;12.73;;;8.43;;
65665;SDS011;52365;47.464;18.976;2024-03-07T00:58:20;11.65;;;7.90;;
65665;SDS011;52365;47.464;18.976;2024-03-07T00:58:41;11.05;;;7.53;;
65665;SDS011;52365;47.464;18.976;2024-03-07T00:59:02;11.12;;;7.97;;
65665;SDS011;52365;47.464;18.976;2024-03-07T00:59:23;12.43;;;8.13;;
65665;SDS011;52365;47.464;18.976;2024-03-07T00:59:44;13.13;;;8.63;;
65665;SDS011;52365;47.464;18.976;2024-03-07T01:00:05;14.15;;;8.82;;
65665;SDS011;52365;47.464;18.976;2024-03-07T01:00:32;12.25;;;8.52;;
65665;SDS011;52365;47.464;18.976;2024-03-07T01:00:53;12.48;;;8.35;;
65665;SDS011;52365;47.464;18.976;2024-03-07T01:01:14;13.65;;;8.45;;
65665;SDS011;52365;47.464;18.976;2024-03-07T01:01:35;13.90;;;8.75;;
65665;SDS011;52365;47.464;18.976;2024-03-07T01:01:58;13.40;;;8.20;;
65665;SDS011;52365;47.464;18.976;2024-03-07T01:02:20;11.82;;;7.90;;
65665;SDS011;52365;47.464;18.976;2024-03-07T01:02:40;12.18;;;8.10;;
65665;SDS011;52365;47.464;18.976;2024-03-07T01:03:04;13.75;;;8.65;;
65665;SDS011;52365;47.464;18.976;2024-03-07T01:03:25;11.88;;;8.52;;
65665;SDS011;52365;47.464;18.976;2024-03-07T01:03:46;11.80;;;8.30;;
65665;SDS011;52365;47.464;18.976;2024-03-07T01:04:07;11.70;;;8.10;;
65665;SDS011;52365;47.464;18.976;2024-03-07T01:04:28;11.85;;;8.00;;
65665;SDS011;52365;47.464;18.976;2024-03-07T01:04:51;11.73;;;7.87;;
65665;SDS011;52365;47.464;18.976;2024-03-07T01:05:14;11.82;;;7.80;;
65665;SDS011;52365;47.464;18.976;2024-03-07T01:05:30;12.13;;;7.95;;
65665;SDS011;52365;47.464;18.976;2024-03-07T01:05:50;12.27;;;8.10;;
65665;SDS011;52365;47.464;18.976;2024-03-07T01:06:11;11.77;;;8.18;;
65665;SDS011;52365;47.464;18.976;2024-03-07T01:06:33;13.02;;;8.70;;
65665;SDS011;52365;47.464;18.976;2024-03-07T01:06:54;13.48;;;8.38;;
65665;SDS011;52365;47.464;18.976;2024-03-07T01:07:15;12.77;;;8.15;;
65665;SDS011;52365;47.464;18.976;2024-03-07T01:07:36;11.77;;;7.78;;
65665;SDS011;52365;47.464;18.976;2024-03-07T01:07:57;11.43;;;7.70;;
65665;SDS011;52365;47.464;18.976;2024-03-07T01:08:18;12.13;;;8.25;;
65665;SDS011;52365;47.464;18.976;2024-03-07T01:08:39;12.07;;;8.07;;
65665;SDS011;52365;47.464;18.976;2024-03-07T01:09:00;12.05;;;7.95;;
65665;SDS011;52365;47.464;18.976;2024-03-07T01:09:21;12.82;;;8.60;;
65665;SDS011;52365;47.464;18.976;2024-03-07T01:09:43;11.30;;;7.62;;
65665;SDS011;52365;47.464;18.976;2024-03-07T01:10:04;10.45;;;7.40;;
65665;SDS011;52365;47.464;18.976;2024-03-07T01:10:26;11.98;;;7.60;;
65665;SDS011;52365;47.464;18.976;2024-03-07T01:10:49;11.57;;;7.57;;
65665;SDS011;52365;47.464;18.976;2024-03-07T01:11:10;10.95;;;7.68;;
65665;SDS011;52365;47.464;18.976;2024-03-07T01:11:32;12.30;;;7.62;;
65665;SDS011;52365;47.464;18.976;2024-03-07T01:11:53;12.77;;;7.62;;
65665;SDS011;52365;47.464;18.976;2024-03-07T01:12:15;12.35;;;7.85;;
65665;SDS011;52365;47.464;18.976;2024-03-07T01:12:37;12.57;;;7.50;;
65665;SDS011;52365;47.464;18.976;2024-03-07T01:12:58;13.23;;;7.80;;
65665;SDS011;52365;47.464;18.976;2024-03-07T01:13:22;12.82;;;7.80;;
65665;SDS011;52365;47.464;18.976;2024-03-07T01:13:44;12.75;;;7.85;;
65665;SDS011;52365;47.464;18.976;2024-03-07T01:14:05;11.30;;;7.55;;
65665;SDS011;52365;47.464;18.976;2024-03-07T01:14:26;12.10;;;7.40;;
65665;SDS011;52365;47.464;18.976;2024-03-07T01:14:47;10.30;;;7.03;;
65665;SDS011;52365;47.464;18.976;2024-03-07T01:15:08;11.12;;;7.18;;
65665;SDS011;52365;47.464;18.976;2024-03-07T01:15:31;12.15;;;7.50;;
65665;SDS011;52365;47.464;18.976;2024-03-07T01:15:53;11.12;;;7.32;;
65665;SDS011;52365;47.464;18.976;2024-03-07T01:16:09;11.35;;;7.40;;
65665;SDS011;52365;47.464;18.976;2024-03-07T01:16:30;10.88;;;7.00;;
65665;SDS011;52365;47.464;18.976;2024-03-07T01:16:51;10.55;;;7.25;;
65665;SDS011;52365;47.464;18.976;2024-03-07T01:17:12;10.88;;;7.10;;
65665;SDS011;52365;47.464;18.976;2024-03-07T01:17:33;11.63;;;7.25;;
65665;SDS011;52365;47.464;18.976;2024-03-07T01:17:54;11.85;;;7.45;;
65665;SDS011;52365;47.464;18.976;2024-03-07T01:18:15;11.97;;;7.47;;
65665;SDS011;52365;47.464;18.976;2024-03-07T01:18:37;10.60;;;7.18;;
65665;SDS011;52365;47.464;18.976;2024-03-07T01:18:58;9.55;;;6.87;;
65665;SDS011;52365;47.464;18.976;2024-03-07T01:19:19;10.05;;;6.72;;
65665;SDS011;52365;47.464;18.976;2024-03-07T01:19:40;10.77;;;6.93;;
65665;SDS011;52365;47.464;18.976;2024-03-07T01:20:01;10.38;;;6.80;;
65665;SDS011;52365;47.464;18.976;2024-03-07T01:20:23;12.02;;;7.00;;
65665;SDS011;52365;47.464;18.976;2024-03-07T01:20:45;11.00;;;6.72;;
65665;SDS011;52365;47.464;18.976;2024-03-07T01:21:06;10.13;;;6.20;;
65665;SDS011;52365;47.464;18.976;2024-03-07T01:21:28;10.27;;;6.57;;
65665;SDS011;52365;47.464;18.976;2024-03-07T01:21:44;10.60;;;6.68;;
65665;SDS011;52365;47.464;18.976;2024-03-07T01:22:06;11.43;;;6.93;;
65665;SDS011;52365;47.464;18.976;2024-03-07T01:22:26;11.18;;;7.15;;
65665;SDS011;52365;47.464;18.976;2024-03-07T01:22:47;9.95;;;6.53;;
65665;SDS011;52365;47.464;18.976;2024-03-07T01:23:08;9.85;;;6.93;;
65665;SDS011;52365;47.464;18.976;2024-03-07T01:23:30;10.18;;;6.32;;
65665;SDS011;52365;47.464;18.976;2024-03-07T01:23:52;9.77;;;6.10;;
65665;SDS011;52365;47.464;18.976;2024-03-07T01:24:13;10.27;;;6.37;;
65665;SDS011;52365;47.464;18.976;2024-03-07T01:24:38;10.80;;;6.62;;
65665;SDS011;52365;47.464;18.976;2024-03-07T01:25:00;10.93;;;6.40;;
65665;SDS011;52365;47.464;18.976;2024-03-07T01:25:21;9.25;;;6.05;;
65665;SDS011;52365;47.464;18.976;2024-03-07T01:25:42;9.88;;;6.37;;
65665;SDS011;52365;47.464;18.976;2024-03-07T01:26:03;10.00;;;6.57;;
65665;SDS011;52365;47.464;18.976;2024-03-07T01:26:24;10.75;;;6.68;;
65665;SDS011;52365;47.464;18.976;2024-03-07T01:26:45;10.45;;;6.45;;
65665;SDS011;52365;47.464;18.976;2024-03-07T01:27:06;10.63;;;6.62;;
65665;SDS011;52365;47.464;18.976;2024-03-07T01:27:28;10.80;;;6.60;;
65665;SDS011;52365;47.464;18.976;2024-03-07T01:27:49;10.90;;;6.62;;
65665;SDS011;52365;47.464;18.976;2024-03-07T01:28:11;10.32;;;6.82;;
65665;SDS011;52365;47.464;18.976;2024-03-07T01:28:34;10.85;;;6.78;;
65665;SDS011;52365;47.464;18.976;2024-03-07T01:28:56;11.10;;;6.93;;
65665;SDS011;52365;47.464;18.976;2024-03-07T01:29:18;9.70;;;6.40;;
65665;SDS011;52365;47.464;18.976;2024-03-07T01:29:39;9.10;;;6.20;;
65665;SDS011;52365;47.464;18.976;2024-03-07T01:30:05;10.00;;;6.28;;
65665;SDS011;52365;47.464;18.976;2024-03-07T01:30:29;10.25;;;6.50;;
65665;SDS011;52365;47.464;18.976;2024-03-07T01:30:50;10.23;;;6.65;;
65665;SDS011;52365;47.464;18.976;2024-03-07T01:31:12;10.32;;;6.80;;
65665;SDS011;52365;47.464;18.976;2024-03-07T01:31:33;10.95;;;7.20;;
65665;SDS011;52365;47.464;18.976;2024-03-07T01:31:54;11.45;;;7.30;;
65665;SDS011;52365;47.464;18.976;2024-03-07T01:32:15;10.82;;;6.93;;
65665;SDS011;52365;47.464;18.976;2024-03-07T01:32:36;11.07;;;6.80;;
65665;SDS011;52365;47.464;18.976;2024-03-07T01:32:57;10.00;;;6.78;;
65665;SDS011;52365;47.464;18.976;2024-03-07T01:33:21;8.85;;;6.15;;
65665;SDS011;52365;47.464;18.976;2024-03-07T01:33:42;10.13;;;6.53;;
65665;SDS011;52365;47.464;18.976;2024-03-07T01:34:03;11.20;;;6.82;;
65665;SDS011;52365;47.464;18.976;2024-03-07T01:34:23;11.38;;;7.10;;
65665;SDS011;52365;47.464;18.976;2024-03-07T01:34:44;10.40;;;6.53;;
65665;SDS011;52365;47.464;18.976;2024-03-07T01:35:05;9.80;;;6.20;;
65665;SDS011;52365;47.464;18.976;2024-03-07T01:35:30;10.20;;;6.47;;
65665;SDS011;52365;47.464;18.976;2024-03-07T01:35:51;10.05;;;6.12;;
65665;SDS011;52365;47.464;18.976;2024-03-07T01:36:12;9.77;;;5.93;;
65665;SDS011;52365;47.464;18.976;2024-03-07T01:36:33;10.32;;;6.25;;
65665;SDS011;52365;47.464;18.976;2024-03-07T01:36:54;9.45;;;5.90;;
65665;SDS011;52365;47.464;18.976;2024-03-07T01:37:15;8.75;;;5.85;;
65665;SDS011;52365;47.464;18.976;2024-03-07T01:37:36;9.25;;;5.70;;
65665;SDS011;52365;47.464;18.976;2024-03-07T01:37:57;9.68;;;6.20;;
65665;SDS011;52365;47.464;18.976;2024-03-07T01:38:18;9.98;;;6.28;;
65665;SDS011;52365;47.464;18.976;2024-03-07T01:38:38;10.18;;;6.18;;
65665;SDS011;52365;47.464;18.976;2024-03-07T01:38:59;9.23;;;6.25;;
65665;SDS011;52365;47.464;18.976;2024-03-07T01:39:20;10.13;;;6.47;;
65665;SDS011;52365;47.464;18.976;2024-03-07T01:39:41;10.77;;;6.50;;
65665;SDS011;52365;47.464;18.976;2024-03-07T01:40:03;10.60;;;6.50;;
65665;SDS011;52365;47.464;18.976;2024-03-07T01:40:25;9.98;;;6.43;;
65665;SDS011;52365;47.464;18.976;2024-03-07T01:40:46;9.63;;;6.62;;
65665;SDS011;52365;47.464;18.976;2024-03-07T01:41:07;9.38;;;6.53;;
65665;SDS011;52365;47.464;18.976;2024-03-07T01:41:29;9.52;;;6.35;;
65665;SDS011;52365;47.464;18.976;2024-03-07T01:41:50;9.70;;;5.82;;
65665;SDS011;52365;47.464;18.976;2024-03-07T01:42:11;9.88;;;6.15;;
65665;SDS011;52365;47.464;18.976;2024-03-07T01:42:31;9.32;;;6.03;;
65665;SDS011;52365;47.464;18.976;2024-03-07T01:42:52;10.23;;;5.97;;
65665;SDS011;52365;47.464;18.976;2024-03-07T01:43:14;10.00;;;5.90;;
65665;SDS011;52365;47.464;18.976;2024-03-07T01:43:35;8.57;;;5.45;;
65665;SDS011;52365;47.464;18.976;2024-03-07T01:43:57;8.25;;;5.30;;
65665;SDS011;52365;47.464;18.976;2024-03-07T01:44:18;8.73;;;5.53;;
65665;SDS011;52365;47.464;18.976;2024-03-07T01:44:39;8.85;;;5.75;;
65665;SDS011;52365;47.464;18.976;2024-03-07T01:45:02;8.95;;;5.70;;
65665;SDS011;52365;47.464;18.976;2024-03-07T01:45:23;9.52;;;5.95;;
65665;SDS011;52365;47.464;18.976;2024-03-07T01:45:44;9.30;;;6.10;;
65665;SDS011;52365;47.464;18.976;2024-03-07T01:46:08;9.80;;;6.22;;
65665;SDS011;52365;47.464;18.976;2024-03-07T01:46:30;9.88;;;6.05;;
65665;SDS011;52365;47.464;18.976;2024-03-07T01:46:51;9.48;;;5.93;;
65665;SDS011;52365;47.464;18.976;2024-03-07T01:47:12;9.52;;;6.00;;
65665;SDS011;52365;47.464;18.976;2024-03-07T01:47:35;9.13;;;6.05;;
65665;SDS011;52365;47.464;18.976;2024-03-07T01:47:57;8.43;;;5.80;;
65665;SDS011;52365;47.464;18.976;2024-03-07T01:48:18;9.35;;;5.97;;
65665;SDS011;52365;47.464;18.976;2024-03-07T01:48:49;9.13;;;5.87;;
65665;SDS011;52365;47.464;18.976;2024-03-07T01:49:10;8.85;;;5.90;;
65665;SDS011;52365;47.464;18.976;2024-03-07T01:49:31;9.50;;;6.05;;
65665;SDS011;52365;47.464;18.976;2024-03-07T01:49:53;9.35;;;6.10;;
65665;SDS011;52365;47.464;18.976;2024-03-07T01:50:14;11.48;;;6.97;;
65665;SDS011;52365;47.464;18.976;2024-03-07T01:50:35;21.25;;;14.02;;
65665;SDS011;52365;47.464;18.976;2024-03-07T01:50:59;17.15;;;11.27;;
65665;SDS011;52365;47.464;18.976;2024-03-07T01:51:21;28.45;;;17.90;;
65665;SDS011;52365;47.464;18.976;2024-03-07T01:51:42;35.92;;;22.50;;
65665;SDS011;52365;47.464;18.976;2024-03-07T01:52:04;34.90;;;23.48;;
65665;SDS011;52365;47.464;18.976;2024-03-07T01:52:25;22.55;;;14.95;;
65665;SDS011;52365;47.464;18.976;2024-03-07T01:52:47;22.87;;;14.77;;
65665;SDS011;52365;47.464;18.976;2024-03-07T01:53:11;19.00;;;12.93;;
65665;SDS011;52365;47.464;18.976;2024-03-07T01:53:33;12.75;;;8.43;;
65665;SDS011;52365;47.464;18.976;2024-03-07T01:53:55;12.68;;;8.70;;
65665;SDS011;52365;47.464;18.976;2024-03-07T01:54:16;11.73;;;7.80;;
65665;SDS011;52365;47.464;18.976;2024-03-07T01:54:36;10.57;;;6.78;;
65665;SDS011;52365;47.464;18.976;2024-03-07T01:54:57;10.02;;;6.60;;
65665;SDS011;52365;47.464;18.976;2024-03-07T01:55:18;10.50;;;6.60;;
65665;SDS011;52365;47.464;18.976;2024-03-07T01:55:39;9.70;;;6.03;;
65665;SDS011;52365;47.464;18.976;2024-03-07T01:56:02;8.45;;;5.70;;
65665;SDS011;52365;47.464;18.976;2024-03-07T01:56:24;8.60;;;5.80;;
65665;SDS011;52365;47.464;18.976;2024-03-07T01:56:45;9.52;;;6.00;;
65665;SDS011;52365;47.464;18.976;2024-03-07T01:57:06;8.95;;;5.75;;
65665;SDS011;52365;47.464;18.976;2024-03-07T01:57:28;9.18;;;6.03;;
65665;SDS011;52365;47.464;18.976;2024-03-07T01:57:49;9.98;;;6.28;;
65665;SDS011;52365;47.464;18.976;2024-03-07T01:58:10;9.35;;;6.25;;
65665;SDS011;52365;47.464;18.976;2024-03-07T01:58:37;9.23;;;5.70;;
65665;SDS011;52365;47.464;18.976;2024-03-07T01:58:58;9.52;;;5.72;;
65665;SDS011;52365;47.464;18.976;2024-03-07T01:59:22;10.10;;;5.97;;
65665;SDS011;52365;47.464;18.976;2024-03-07T01:59:43;9.23;;;6.10;;
65665;SDS011;52365;47.464;18.976;2024-03-07T02:00:06;9.25;;;5.85;;
65665;SDS011;52365;47.464;18.976;2024-03-07T02:00:28;8.80;;;5.80;;
65665;SDS011;52365;47.464;18.976;2024-03-07T02:00:49;8.90;;;5.53;;
65665;SDS011;52365;47.464;18.976;2024-03-07T02:01:10;9.93;;;6.03;;
65665;SDS011;52365;47.464;18.976;2024-03-07T02:01:31;10.32;;;6.15;;
65665;SDS011;52365;47.464;18.976;2024-03-07T02:01:53;9.02;;;5.85;;
65665;SDS011;52365;47.464;18.976;2024-03-07T02:02:14;7.97;;;5.68;;
65665;SDS011;52365;47.464;18.976;2024-03-07T02:02:35;8.35;;;5.68;;
65665;SDS011;52365;47.464;18.976;2024-03-07T02:02:56;9.45;;;5.62;;
65665;SDS011;52365;47.464;18.976;2024-03-07T02:03:17;8.27;;;5.78;;
65665;SDS011;52365;47.464;18.976;2024-03-07T02:03:38;8.95;;;6.20;;
65665;SDS011;52365;47.464;18.976;2024-03-07T02:03:59;9.50;;;5.78;;
65665;SDS011;52365;47.464;18.976;2024-03-07T02:04:15;8.93;;;5.67;;
65665;SDS011;52365;47.464;18.976;2024-03-07T02:04:36;9.30;;;5.50;;
65665;SDS011;52365;47.464;18.976;2024-03-07T02:04:57;8.32;;;5.62;;
65665;SDS011;52365;47.464;18.976;2024-03-07T02:05:18;8.10;;;5.50;;
65665;SDS011;52365;47.464;18.976;2024-03-07T02:05:40;9.25;;;5.53;;